Time;durP1;ratioP1;P1;durP2;ratioP2;P2;SDS_P1;SDS_P2;PMS_P1;PMS_P2;Temp;Humidity;BMP_temperature;BMP_pressure;BME280_temperature;BME280_humidity;BME280_pressure;Samples;Min_cycle;Max_cycle;Signal;HPM_P1;HPM_P2
2022/04/28 00:00:19;;;;;;;10.18;6.47;;;10.20;99.90;;;;;;4978420;28;20019;-49
2022/04/28 00:02:46;;;;;;;8.00;6.40;;;10.20;99.90;;;;;;4993110;28;20034;-49
2022/04/28 00:05:12;;;;;;;8.77;6.53;;;10.30;99.90;;;;;;4977178;28;20033;-46
2022/04/28 00:07:38;;;;;;;8.55;6.53;;;10.30;99.90;;;;;;4977274;28;20109;-50
2022/04/28 00:10:06;;;;;;;13.23;7.22;;;10.40;99.90;;;;;;4977548;28;20034;-46
2022/04/28 00:12:32;;;;;;;7.35;5.57;;;10.40;99.90;;;;;;4975729;28;20026;-48
2022/04/28 00:14:58;;;;;;;8.55;6.95;;;10.40;99.90;;;;;;4975339;28;20019;-51
2022/04/28 00:17:23;;;;;;;7.95;7.13;;;10.30;99.90;;;;;;4976609;28;20078;-51
2022/04/28 00:19:49;;;;;;;9.32;6.65;;;10.30;99.90;;;;;;4977473;28;20530;-51
2022/04/28 00:22:16;;;;;;;12.00;6.70;;;10.40;99.90;;;;;;4975404;28;20035;-46
2022/04/28 00:24:42;;;;;;;10.65;6.97;;;10.40;99.90;;;;;;4977690;28;20062;-47
2022/04/28 00:27:08;;;;;;;11.63;7.25;;;10.40;99.90;;;;;;4976931;28;20030;-49
2022/04/28 00:29:34;;;;;;;9.05;7.47;;;10.40;99.90;;;;;;4976971;28;20031;-49
2022/04/28 00:32:00;;;;;;;7.25;6.55;;;10.40;99.90;;;;;;4976926;28;20038;-49
2022/04/28 00:34:26;;;;;;;10.90;6.45;;;10.30;99.90;;;;;;4977132;28;20027;-48
2022/04/28 00:36:51;;;;;;;8.68;7.55;;;10.20;99.90;;;;;;4992308;28;20041;-49
2022/04/28 00:39:17;;;;;;;9.60;6.97;;;10.20;99.90;;;;;;4977145;28;20050;-48
2022/04/28 00:41:42;;;;;;;7.38;6.60;;;10.30;99.90;;;;;;4975666;28;20034;-50
2022/04/28 00:44:10;;;;;;;9.02;6.82;;;10.30;99.90;;;;;;4976849;28;20398;-47
2022/04/28 00:46:36;;;;;;;9.25;7.07;;;10.30;99.90;;;;;;4976853;28;20038;-50
2022/04/28 00:51:46;;;;;;;9.60;6.43;;;10.20;99.90;;;;;;4976918;28;20041;-49
2022/04/28 00:54:12;;;;;;;9.18;6.97;;;10.20;99.90;;;;;;4977047;28;20394;-47
2022/04/28 00:56:38;;;;;;;12.85;7.75;;;10.20;99.90;;;;;;4991527;28;20117;-49
2022/04/28 00:59:04;;;;;;;9.40;6.57;;;10.20;99.90;;;;;;4976531;28;20035;-49
2022/04/28 01:01:30;;;;;;;9.63;7.65;;;10.20;99.90;;;;;;4974945;28;20062;-53
2022/04/28 01:03:55;;;;;;;8.57;7.13;;;10.10;99.90;;;;;;4976399;28;20054;-52
2022/04/28 01:06:22;;;;;;;9.88;7.50;;;10.10;99.90;;;;;;4975911;28;20026;-52
2022/04/28 01:08:48;;;;;;;14.57;7.30;;;10.10;99.90;;;;;;4976039;28;20333;-47
2022/04/28 01:11:16;;;;;;;8.82;7.15;;;10.10;99.90;;;;;;4976650;28;20023;-46
2022/04/28 01:13:42;;;;;;;8.90;7.32;;;10.00;99.90;;;;;;4976428;28;20023;-53
2022/04/28 01:16:08;;;;;;;12.13;8.20;;;10.10;99.90;;;;;;4976577;28;20033;-47
2022/04/28 01:18:33;;;;;;;10.10;7.43;;;10.00;99.90;;;;;;4975825;28;20050;-47
2022/04/28 01:21:03;;;;;;;9.15;7.35;;;10.00;99.90;;;;;;4976384;28;20022;-48
2022/04/28 01:23:31;;;;;;;11.77;7.32;;;10.00;99.90;;;;;;4976776;28;20058;-47
2022/04/28 01:25:56;;;;;;;10.70;7.60;;;10.00;99.90;;;;;;4976422;28;20025;-47
2022/04/28 01:28:22;;;;;;;11.95;8.15;;;10.00;99.90;;;;;;4990991;28;20106;-51
2022/04/28 01:30:48;;;;;;;11.02;7.80;;;10.00;99.90;;;;;;4975904;28;20019;-51
2022/04/28 01:33:14;;;;;;;11.48;8.23;;;10.00;99.90;;;;;;4975923;28;20073;-51
2022/04/28 01:35:39;;;;;;;8.82;7.93;;;10.00;99.90;;;;;;4976136;28;20034;-48
2022/04/28 01:38:04;;;;;;;13.18;8.30;;;10.00;99.90;;;;;;4975497;28;20026;-48
2022/04/28 01:40:30;;;;;;;11.25;8.38;;;9.90;99.90;;;;;;4976104;28;20035;-48
2022/04/28 01:42:55;;;;;;;14.98;7.72;;;9.90;99.90;;;;;;4990901;28;20023;-50
2022/04/28 01:45:21;;;;;;;9.98;8.13;;;9.80;99.90;;;;;;4974912;28;20454;-49
2022/04/28 01:47:46;;;;;;;11.88;8.15;;;9.80;99.90;;;;;;4975375;28;20089;-52
2022/04/28 01:50:12;;;;;;;13.82;7.43;;;9.70;99.90;;;;;;4975967;28;20399;-48
2022/04/28 01:55:23;;;;;;;9.65;8.65;;;9.60;99.90;;;;;;4975711;28;20506;-47
2022/04/28 01:57:49;;;;;;;11.23;8.52;;;9.60;99.90;;;;;;4975292;28;20066;-51
2022/04/28 02:00:16;;;;;;;11.88;8.60;;;9.60;99.90;;;;;;4975883;28;20105;-46
2022/04/28 02:02:42;;;;;;;16.25;8.80;;;9.50;99.90;;;;;;4975908;28;20058;-48
2022/04/28 02:05:10;;;;;;;10.43;8.98;;;9.50;99.90;;;;;;4976117;28;20034;-48
2022/04/28 02:07:36;;;;;;;13.20;9.07;;;9.40;99.90;;;;;;4989523;28;20439;-45
2022/04/28 02:10:03;;;;;;;11.98;9.45;;;9.40;99.90;;;;;;4975143;28;20095;-46
2022/04/28 02:12:29;;;;;;;11.85;9.57;;;9.50;99.90;;;;;;4974589;28;20038;-46
2022/04/28 02:14:54;;;;;;;11.68;9.50;;;9.50;99.90;;;;;;4989690;28;20478;-48
2022/04/28 02:17:25;;;;;;;15.57;9.88;;;9.50;99.90;;;;;;4974843;28;20102;-45
2022/04/28 02:19:51;;;;;;;11.75;9.63;;;9.50;99.90;;;;;;4974579;28;20058;-45
2022/04/28 02:22:17;;;;;;;10.90;9.32;;;9.50;99.90;;;;;;4989775;28;20516;-47
2022/04/28 02:24:42;;;;;;;12.73;10.10;;;9.40;99.90;;;;;;4974793;28;20038;-51
2022/04/28 02:27:08;;;;;;;13.25;9.30;;;9.30;99.90;;;;;;4974415;28;20034;-49
2022/04/28 02:29:34;;;;;;;12.82;10.35;;;9.30;99.90;;;;;;4973431;28;20027;-51
2022/04/28 02:32:00;;;;;;;12.55;9.75;;;9.30;99.90;;;;;;4974526;28;20033;-48
2022/04/28 02:34:25;;;;;;;14.02;10.05;;;9.30;99.90;;;;;;4974893;28;20062;-49
2022/04/28 02:36:51;;;;;;;14.43;9.98;;;9.20;99.90;;;;;;4976486;28;20026;-47
2022/04/28 02:39:19;;;;;;;12.27;9.77;;;9.30;99.90;;;;;;4975324;28;20029;-46
2022/04/28 02:41:46;;;;;;;13.10;10.15;;;9.30;99.90;;;;;;4989546;28;20073;-47
2022/04/28 02:44:12;;;;;;;12.05;9.70;;;9.20;99.90;;;;;;4974546;28;20035;-46
2022/04/28 02:46:39;;;;;;;11.52;9.68;;;9.20;99.90;;;;;;4978663;28;20073;-47
2022/04/28 02:49:05;;;;;;;11.65;10.02;;;9.20;99.90;;;;;;4978582;28;20030;-48
2022/04/28 02:51:30;;;;;;;15.38;9.52;;;9.20;99.90;;;;;;4979349;28;20372;-51
2022/04/28 02:53:56;;;;;;;12.18;9.57;;;9.20;99.90;;;;;;4978399;28;20027;-47
2022/04/28 02:56:22;;;;;;;11.60;9.63;;;9.10;99.90;;;;;;4993323;28;20026;-46
2022/04/28 02:58:48;;;;;;;13.80;8.90;;;9.00;99.90;;;;;;4978248;28;20027;-48
2022/04/28 03:01:13;;;;;;;9.40;8.02;;;9.00;99.90;;;;;;4978859;28;20023;-50
2022/04/28 03:03:39;;;;;;;9.90;8.75;;;8.90;99.90;;;;;;4978471;28;20093;-48
2022/04/28 03:11:32;;;;;;;9.50;8.55;;;8.70;99.90;;;;;;4978536;28;20033;-50
2022/04/28 03:13:58;;;;;;;13.70;8.65;;;8.60;99.90;;;;;;4978073;28;20035;-47
2022/04/28 03:16:24;;;;;;;15.40;9.65;;;8.60;99.90;;;;;;4978326;28;20081;-48
2022/04/28 03:18:49;;;;;;;11.00;8.88;;;8.60;99.90;;;;;;4985485;23;20051;-47
2022/04/28 03:21:15;;;;;;;15.77;9.05;;;8.50;99.90;;;;;;4958239;28;20019;-44
2022/04/28 03:23:41;;;;;;;16.15;9.30;;;8.50;99.90;;;;;;4957961;28;20035;-44
2022/04/28 03:26:07;;;;;;;12.60;9.30;;;8.50;99.90;;;;;;4957735;28;20074;-43
2022/04/28 03:28:35;;;;;;;10.95;8.65;;;8.50;99.90;;;;;;4956960;28;20479;-41
2022/04/28 03:31:05;;;;;;;12.00;9.63;;;8.50;99.90;;;;;;4957934;28;20034;-47
2022/04/28 03:33:32;;;;;;;12.40;9.50;;;8.40;99.90;;;;;;4956882;28;20047;-45
2022/04/28 03:35:57;;;;;;;10.65;9.55;;;8.30;99.90;;;;;;4956922;28;20035;-45
2022/04/28 03:38:23;;;;;;;11.40;9.32;;;8.30;99.90;;;;;;4955691;28;20151;-40
2022/04/28 03:40:48;;;;;;;15.82;10.82;;;8.30;99.90;;;;;;4956645;28;20074;-49
2022/04/28 03:43:14;;;;;;;14.35;10.35;;;8.30;99.90;;;;;;4956591;28;20033;-45
2022/04/28 03:45:40;;;;;;;15.73;10.30;;;8.20;99.90;;;;;;4956517;28;20029;-43
2022/04/28 03:48:09;;;;;;;14.15;10.65;;;8.10;99.90;;;;;;4955410;29;20163;-49
2022/04/28 03:50:35;;;;;;;14.95;11.32;;;8.20;99.90;;;;;;4956486;28;20028;-43
2022/04/28 03:53:01;;;;;;;13.82;11.55;;;8.20;99.90;;;;;;4956228;28;20043;-48
2022/04/28 03:55:27;;;;;;;15.25;11.30;;;8.20;99.90;;;;;;4956296;28;20483;-45
2022/04/28 03:57:52;;;;;;;15.65;11.57;;;8.30;99.90;;;;;;4956913;28;20063;-44
2022/04/28 04:00:19;;;;;;;14.57;11.52;;;8.20;99.90;;;;;;4956438;28;20035;-40
2022/04/28 04:02:44;;;;;;;13.10;11.52;;;8.20;99.90;;;;;;4957141;28;20031;-44
2022/04/28 04:05:10;;;;;;;18.02;11.48;;;8.20;99.90;;;;;;4956454;28;20495;-49
2022/04/28 04:07:38;;;;;;;16.48;12.63;;;8.20;99.90;;;;;;4955923;28;20364;-44
2022/04/28 04:10:05;;;;;;;16.30;13.05;;;8.20;99.90;;;;;;4956084;28;20034;-44
2022/04/28 04:12:30;;;;;;;21.05;13.68;;;8.20;99.90;;;;;;4956179;28;20090;-46
2022/04/28 04:14:56;;;;;;;17.35;13.65;;;8.20;99.90;;;;;;4954755;29;20023;-43
2022/04/28 04:17:22;;;;;;;19.95;14.23;;;8.10;99.90;;;;;;4955807;28;20027;-44
2022/04/28 04:19:48;;;;;;;20.85;14.45;;;8.10;99.90;;;;;;4955688;28;20042;-39
2022/04/28 04:22:13;;;;;;;20.45;14.48;;;8.20;99.90;;;;;;4955760;28;20025;-42
2022/04/28 04:24:40;;;;;;;20.05;14.77;;;8.30;99.90;;;;;;4970603;28;20046;-46
2022/04/28 04:27:06;;;;;;;22.00;15.93;;;8.20;99.90;;;;;;4955497;28;20030;-50
2022/04/28 04:29:32;;;;;;;22.63;14.30;;;8.30;99.90;;;;;;4955409;28;20019;-45
2022/04/28 04:34:41;;;;;;;18.70;15.02;;;8.30;99.90;;;;;;4955526;29;20518;-45
2022/04/28 04:37:07;;;;;;;19.55;14.82;;;8.30;99.90;;;;;;4954807;28;20070;-45
2022/04/28 04:39:32;;;;;;;21.77;15.70;;;8.20;99.90;;;;;;4955348;28;20078;-44
2022/04/28 04:41:58;;;;;;;30.48;14.80;;;8.20;99.90;;;;;;4955434;28;20043;-44
2022/04/28 04:44:23;;;;;;;19.30;14.55;;;8.20;99.90;;;;;;4955166;28;20031;-44
2022/04/28 04:46:49;;;;;;;20.95;13.70;;;8.30;99.90;;;;;;4955201;28;20471;-40
2022/04/28 04:49:15;;;;;;;18.77;13.73;;;8.30;99.90;;;;;;4955224;28;20031;-43
2022/04/28 04:51:40;;;;;;;16.00;13.15;;;8.30;99.90;;;;;;4955219;28;20351;-44
2022/04/28 04:54:06;;;;;;;19.95;13.02;;;8.40;99.90;;;;;;4955202;28;20027;-54
2022/04/28 04:56:33;;;;;;;20.30;14.13;;;8.50;99.90;;;;;;4955029;28;20031;-40
2022/04/28 04:58:59;;;;;;;15.77;12.10;;;8.60;99.90;;;;;;4954759;28;20082;-46
2022/04/28 05:01:24;;;;;;;15.75;12.50;;;8.70;99.90;;;;;;4955056;28;20027;-48
2022/04/28 05:03:50;;;;;;;17.08;12.05;;;9.00;99.90;;;;;;4956554;28;20038;-38
2022/04/28 05:06:15;;;;;;;12.85;11.55;;;9.20;99.90;;;;;;4955012;28;20038;-44
2022/04/28 05:08:41;;;;;;;16.98;11.98;;;9.50;99.90;;;;;;4954085;28;20442;-43
2022/04/28 05:11:06;;;;;;;13.43;10.88;;;9.70;99.90;;;;;;4954944;28;20023;-46
2022/04/28 05:13:32;;;;;;;12.75;10.77;;;9.70;99.90;;;;;;4955004;28;20023;-43
2022/04/28 05:15:57;;;;;;;18.73;11.30;;;9.70;99.90;;;;;;4954589;28;20050;-41
2022/04/28 05:18:23;;;;;;;14.77;10.95;;;9.80;99.90;;;;;;4954352;28;20033;-41
2022/04/28 05:20:50;;;;;;;19.48;10.95;;;9.80;99.90;;;;;;4954728;28;20054;-45
2022/04/28 05:23:16;;;;;;;16.40;11.55;;;9.80;99.90;;;;;;4954940;28;20062;-50
2022/04/28 05:25:42;;;;;;;12.10;10.70;;;9.80;99.90;;;;;;4953283;29;20094;-44
2022/04/28 05:28:08;;;;;;;16.58;11.10;;;9.80;99.90;;;;;;4954197;28;20483;-44
2022/04/28 05:30:33;;;;;;;15.45;11.38;;;9.90;99.90;;;;;;4954421;28;20027;-41
2022/04/28 05:32:59;;;;;;;11.25;10.05;;;10.00;99.90;;;;;;4954936;28;20078;-48
2022/04/28 05:35:24;;;;;;;13.00;10.38;;;10.20;99.90;;;;;;4954902;28;20046;-44
2022/04/28 05:37:50;;;;;;;14.27;11.05;;;10.50;99.90;;;;;;4954315;28;20035;-44
2022/04/28 05:40:16;;;;;;;13.98;10.55;;;10.60;99.90;;;;;;4955010;28;20098;-45
2022/04/28 05:48:10;;;;;;;16.55;11.40;;;11.00;99.90;;;;;;4954049;29;20086;-48
2022/04/28 05:50:37;;;;;;;14.25;11.23;;;10.90;99.90;;;;;;4954095;28;20023;-45
2022/04/28 05:53:03;;;;;;;12.73;11.30;;;10.90;99.90;;;;;;4954167;28;20476;-44
2022/04/28 05:55:28;;;;;;;16.63;12.52;;;10.90;99.90;;;;;;4954146;28;20086;-38
2022/04/28 05:57:57;;;;;;;18.40;12.82;;;10.70;99.90;;;;;;4953601;28;20094;-44
2022/04/28 06:00:23;;;;;;;15.45;12.85;;;10.60;99.90;;;;;;4953979;28;20024;-42
2022/04/28 06:02:48;;;;;;;16.92;12.68;;;10.50;99.90;;;;;;4954046;28;20031;-42
2022/04/28 06:05:14;;;;;;;15.45;12.63;;;10.60;99.90;;;;;;4954049;28;20115;-44
2022/04/28 06:07:39;;;;;;;20.77;13.18;;;10.60;99.90;;;;;;4952578;28;20471;-55
2022/04/28 06:10:05;;;;;;;16.52;12.00;;;10.70;99.90;;;;;;4953101;29;20028;-44
2022/04/28 06:12:31;;;;;;;16.63;12.02;;;10.90;99.90;;;;;;4952602;28;20148;-45
2022/04/28 06:14:56;;;;;;;16.95;11.98;;;11.10;99.90;;;;;;4953859;28;20110;-43
2022/04/28 06:17:22;;;;;;;18.45;12.65;;;11.30;99.90;;;;;;4953488;28;20034;-47
2022/04/28 06:19:47;;;;;;;20.08;13.45;;;11.80;99.90;;;;;;4954166;28;20039;-45
2022/04/28 06:22:13;;;;;;;17.00;12.38;;;12.10;99.90;;;;;;4953646;28;20023;-44
2022/04/28 06:24:39;;;;;;;20.88;13.95;;;12.40;99.90;;;;;;4954078;28;20118;-43
2022/04/28 06:27:04;;;;;;;15.55;12.57;;;12.60;99.90;;;;;;4953694;28;20395;-44
2022/04/28 06:29:30;;;;;;;15.48;13.23;;;12.80;99.90;;;;;;4953470;28;20524;-48
2022/04/28 06:31:56;;;;;;;22.42;12.82;;;12.80;99.90;;;;;;4953637;28;20031;-46
2022/04/28 06:34:22;;;;;;;16.42;12.70;;;12.70;99.90;;;;;;4953535;28;20410;-46
2022/04/28 06:36:47;;;;;;;18.50;12.38;;;12.80;99.90;;;;;;4953114;28;20117;-41
2022/04/28 06:39:13;;;;;;;16.38;13.10;;;12.90;99.90;;;;;;4953138;28;20059;-46
2022/04/28 06:41:39;;;;;;;13.13;11.75;;;13.00;99.90;;;;;;4953462;28;20043;-49
2022/04/28 06:44:05;;;;;;;18.83;12.13;;;13.20;99.90;;;;;;4953744;28;20031;-47
2022/04/28 06:46:31;;;;;;;17.52;12.50;;;13.40;99.90;;;;;;4953660;28;20027;-45
2022/04/28 06:48:56;;;;;;;14.75;12.23;;;13.50;99.90;;;;;;4953021;28;20027;-40
2022/04/28 06:51:22;;;;;;;24.17;12.27;;;13.60;99.90;;;;;;4953327;28;20023;-44
2022/04/28 06:53:47;;;;;;;13.13;11.77;;;13.60;99.90;;;;;;4953263;28;20459;-50
2022/04/28 06:56:13;;;;;;;13.38;10.95;;;13.70;99.90;;;;;;4953450;28;20106;-45
2022/04/28 06:58:39;;;;;;;14.98;10.63;;;13.80;99.90;;;;;;4952881;28;20027;-39
2022/04/28 07:01:04;;;;;;;14.85;9.75;;;14.10;99.90;;;;;;4953347;28;20484;-42
2022/04/28 07:03:30;;;;;;;12.65;10.68;;;14.20;99.90;;;;;;4952993;29;20111;-45
2022/04/28 07:05:56;;;;;;;16.17;10.00;;;14.40;99.90;;;;;;4953334;28;20024;-44
2022/04/28 07:08:21;;;;;;;14.02;10.07;;;14.70;99.90;;;;;;4952686;28;20019;-43
2022/04/28 07:10:47;;;;;;;11.85;9.25;;;15.30;99.90;;;;;;4953247;28;20023;-45
2022/04/28 07:13:12;;;;;;;12.15;8.50;;;15.90;98.70;;;;;;4953129;29;20038;-51
2022/04/28 07:15:38;;;;;;;8.88;7.97;;;16.30;97.80;;;;;;4953436;29;20043;-43
2022/04/28 07:18:05;;;;;;;12.27;9.48;;;16.40;97.40;;;;;;4952787;29;20057;-43
2022/04/28 07:20:34;;;;;;;10.88;8.13;;;16.30;97.40;;;;;;4952892;28;20110;-43
2022/04/28 07:23:00;;;;;;;10.27;7.50;;;16.30;97.70;;;;;;4951540;29;20114;-44
2022/04/28 07:25:27;;;;;;;10.35;9.13;;;15.80;97.50;;;;;;4953192;29;20035;-43
2022/04/28 07:27:54;;;;;;;13.57;9.50;;;15.50;98.40;;;;;;4952745;29;20087;-44
2022/04/28 07:30:20;;;;;;;10.65;8.68;;;15.20;99.00;;;;;;4953144;28;20034;-47
2022/04/28 07:32:47;;;;;;;11.60;8.98;;;15.10;99.60;;;;;;4956657;28;20047;-42
2022/04/28 07:35:13;;;;;;;11.55;9.02;;;15.10;99.00;;;;;;4956538;29;20078;-42
2022/04/28 07:37:38;;;;;;;17.23;10.55;;;15.20;99.70;;;;;;4956090;28;20031;-45
2022/04/28 07:40:04;;;;;;;9.80;8.13;;;15.30;99.20;;;;;;4956245;28;20058;-44
2022/04/28 07:42:30;;;;;;;9.00;7.90;;;15.40;98.90;;;;;;4956509;29;20074;-45
2022/04/28 07:44:56;;;;;;;12.57;8.27;;;15.40;99.30;;;;;;4956175;29;20031;-40
2022/04/28 07:47:22;;;;;;;7.75;6.72;;;15.60;98.30;;;;;;4956159;29;20099;-40
2022/04/28 07:49:47;;;;;;;8.23;7.00;;;15.90;98.40;;;;;;4956177;29;20127;-44
2022/04/28 07:52:13;;;;;;;11.05;7.32;;;16.20;97.80;;;;;;4956625;29;20439;-43
2022/04/28 07:54:38;;;;;;;8.85;6.18;;;16.70;96.80;;;;;;4957024;29;20042;-43
2022/04/28 07:57:03;;;;;;;11.32;6.22;;;17.20;96.90;;;;;;4956249;29;20170;-43
2022/04/28 07:59:29;;;;;;;7.05;5.78;;;18.40;95.30;;;;;;4957010;28;20031;-44
2022/04/28 08:01:55;;;;;;;8.20;5.55;;;19.40;93.50;;;;;;4956633;29;20019;-45
2022/04/28 08:04:20;;;;;;;7.88;5.07;;;20.50;90.50;;;;;;4956333;28;20027;-48
2022/04/28 08:06:46;;;;;;;7.25;5.32;;;21.00;89.80;;;;;;4956022;29;20032;-39
2022/04/28 08:09:11;;;;;;;8.07;4.85;;;21.80;85.90;;;;;;4955569;29;20040;-46
2022/04/28 08:11:40;;;;;;;5.18;4.32;;;22.30;85.00;;;;;;4956015;29;20506;-47
2022/04/28 08:14:05;;;;;;;7.03;4.97;;;22.80;83.50;;;;;;4955937;29;20102;-45
2022/04/28 08:16:31;;;;;;;7.40;4.50;;;23.80;81.50;;;;;;4955790;29;20111;-41
2022/04/28 08:18:56;;;;;;;8.60;3.97;;;24.60;77.40;;;;;;4954986;28;20042;-42
2022/04/28 08:21:22;;;;;;;5.78;4.05;;;24.90;72.10;;;;;;4946063;29;20451;-43
2022/04/28 08:23:47;;;;;;;6.18;3.75;;;25.00;70.20;;;;;;4955719;29;20036;-48
2022/04/28 08:26:13;;;;;;;6.57;4.20;;;24.80;69.20;;;;;;4956595;28;20027;-40
2022/04/28 08:28:38;;;;;;;3.72;3.42;;;24.50;67.60;;;;;;4955281;28;20028;-44
2022/04/28 08:31:04;;;;;;;7.70;3.80;;;24.00;68.00;;;;;;4970799;28;20027;-47
2022/04/28 08:33:29;;;;;;;5.60;3.65;;;24.20;69.00;;;;;;4955952;29;20039;-45
2022/04/28 08:35:55;;;;;;;5.50;3.88;;;23.70;67.70;;;;;;4955778;28;20056;-45
2022/04/28 08:38:21;;;;;;;9.20;4.13;;;24.00;68.10;;;;;;4955290;28;20078;-47
2022/04/28 08:40:48;;;;;;;5.90;4.03;;;24.40;67.40;;;;;;4954399;28;20051;-43
2022/04/28 08:43:16;;;;;;;5.78;4.18;;;24.30;66.50;;;;;;4953662;28;20034;-57
2022/04/28 08:46:50;;;;;;;6.15;3.90;;;24.00;65.90;;;;;;4955240;29;20104;-45
2022/04/28 08:48:31;;;;;;;8.15;3.42;;;23.80;67.60;;;;;;4954827;29;20039;-46
2022/04/28 08:50:57;;;;;;;6.80;4.22;;;23.30;66.30;;;;;;4955748;28;20063;-49
2022/04/28 08:53:23;;;;;;;4.53;3.83;;;23.00;68.50;;;;;;4956059;28;20059;-50
2022/04/28 08:55:49;;;;;;;8.48;3.83;;;22.90;68.50;;;;;;4955407;29;20070;-54
2022/04/28 08:58:15;;;;;;;3.47;3.20;;;22.80;69.50;;;;;;4954647;29;20531;-48
2022/04/28 09:00:40;;;;;;;4.03;3.72;;;22.60;67.00;;;;;;4954923;29;20019;-46
2022/04/28 09:03:06;;;;;;;5.07;3.58;;;22.30;68.90;;;;;;4954550;28;20027;-49
2022/04/28 09:05:33;;;;;;;6.43;3.42;;;21.90;70.10;;;;;;4954801;29;20106;-46
2022/04/28 09:07:58;;;;;;;4.18;3.78;;;21.80;70.30;;;;;;4954489;29;20102;-47
2022/04/28 09:10:32;;;;;;;3.80;3.20;;;21.80;70.20;;;;;;4969510;28;20123;-48
2022/04/28 09:15:49;;;;;;;5.90;3.85;;;21.80;70.90;;;;;;4954916;29;20043;-48
2022/04/28 09:18:15;;;;;;;4.13;3.58;;;21.80;70.90;;;;;;4954217;29;20518;-45
2022/04/28 09:20:42;;;;;;;5.45;4.18;;;21.60;70.10;;;;;;4981027;23;20051;-47
2022/04/28 09:23:09;;;;;;;4.00;3.70;;;21.40;69.20;;;;;;4974333;28;20050;-45
2022/04/28 09:25:35;;;;;;;3.65;2.88;;;21.30;70.10;;;;;;4973706;28;20026;-47
2022/04/28 09:28:03;;;;;;;5.18;3.78;;;21.50;66.90;;;;;;4973410;28;20026;-49
2022/04/28 09:30:39;;;;;;;4.13;3.45;;;21.60;69.60;;;;;;4973603;28;20510;-47
2022/04/28 09:33:12;;;;;;;4.70;3.40;;;21.20;70.70;;;;;;4972373;28;20038;-48
2022/04/28 09:35:47;;;;;;;3.90;3.60;;;21.40;69.40;;;;;;4973589;28;20398;-48
2022/04/28 09:38:12;;;;;;;3.70;2.78;;;21.10;69.90;;;;;;4972723;28;20497;-45
2022/04/28 09:43:22;;;;;;;4.53;2.58;;;21.60;69.80;;;;;;4973574;28;20407;-44
2022/04/28 09:45:51;;;;;;;2.88;2.60;;;21.50;65.30;;;;;;4973668;28;20027;-46
2022/04/28 09:48:18;;;;;;;2.90;2.70;;;20.90;64.90;;;;;;4972322;28;20027;-46
2022/04/28 09:50:45;;;;;;;5.80;2.80;;;20.80;65.50;;;;;;4987992;28;20033;-49
2022/04/28 09:53:11;;;;;;;3.15;2.95;;;20.50;66.60;;;;;;4971733;28;20400;-46
2022/04/28 09:55:39;;;;;;;4.05;3.03;;;20.50;66.60;;;;;;4972826;28;20109;-48
2022/04/28 09:58:09;;;;;;;2.60;2.40;;;20.70;64.50;;;;;;4972596;28;20042;-49
2022/04/28 10:00:34;;;;;;;2.72;2.42;;;20.80;65.40;;;;;;4958679;28;20030;-45
2022/04/28 10:03:02;;;;;;;3.25;2.97;;;20.50;62.80;;;;;;4956305;28;20027;-48
2022/04/28 10:05:29;;;;;;;5.53;2.75;;;20.10;65.20;;;;;;4967262;28;20403;-45
2022/04/28 10:07:55;;;;;;;3.30;3.00;;;20.20;64.70;;;;;;4963489;28;20558;-45
2022/04/28 10:10:21;;;;;;;4.75;3.25;;;20.00;65.40;;;;;;4973026;28;20019;-48
2022/04/28 10:12:48;;;;;;;4.45;3.00;;;20.10;65.40;;;;;;4971852;28;20105;-49
2022/04/28 10:15:15;;;;;;;3.42;3.00;;;20.40;66.30;;;;;;4972844;28;20034;-48
2022/04/28 10:17:44;;;;;;;7.85;2.85;;;20.40;64.80;;;;;;4972969;28;20506;-47
2022/04/28 10:20:16;;;;;;;3.20;2.65;;;20.40;65.10;;;;;;4972520;28;20379;-47
2022/04/28 10:22:43;;;;;;;3.65;2.88;;;20.10;63.70;;;;;;4960680;28;20495;-48
2022/04/28 10:33:38;;;;;;;12.95;10.23;;;19.70;67.40;;;;;;4972218;28;20125;-48
2022/04/28 10:36:04;;;;;;;81.22;53.65;;;19.90;65.30;;;;;;4973021;28;20495;-45
2022/04/28 10:38:38;;;;;;;4.22;3.83;;;19.80;64.00;;;;;;4972720;28;20073;-49
2022/04/28 10:41:05;;;;;;;4.28;3.00;;;19.90;64.70;;;;;;4972934;28;20023;-50
2022/04/28 10:43:33;;;;;;;4.32;3.92;;;20.00;66.70;;;;;;4986356;28;20126;-45
2022/04/28 10:46:22;;;;;;;3.55;3.25;;;20.10;67.10;;;;;;4971265;28;20023;-42
2022/04/28 10:48:52;;;;;;;5.57;3.65;;;20.10;64.60;;;;;;4971190;28;20390;-46
2022/04/28 10:51:23;;;;;;;2.97;2.78;;;20.00;67.30;;;;;;4972263;28;20019;-48
2022/04/28 10:54:21;;;;;;;3.30;3.05;;;20.10;68.00;;;;;;4964220;28;20288;-49
2022/04/28 10:56:56;;;;;;;3.70;3.40;;;20.10;68.30;;;;;;4957686;28;20026;-46
2022/04/28 10:59:31;;;;;;;4.45;2.92;;;20.40;66.40;;;;;;4970469;28;20050;-47
2022/04/28 11:02:17;;;;;;;;;;;20.50;67.90;;;;;;4953687;28;20510;-48
2022/04/28 11:04:49;;;;;;;2.90;2.70;;;20.40;65.60;;;;;;4981948;28;19921;-47
2022/04/28 11:07:17;;;;;;;5.15;3.45;;;20.10;64.90;;;;;;4975010;28;20031;-42
2022/04/28 11:09:44;;;;;;;5.80;3.08;;;19.80;64.10;;;;;;4975962;28;20015;-43
2022/04/28 11:12:18;;;;;;;5.57;3.10;;;19.60;66.10;;;;;;4976312;28;20030;-44
2022/04/28 11:15:02;;;;;;;2.65;2.40;;;19.20;65.40;;;;;;4976273;28;20499;-49
2022/04/28 11:17:30;;;;;;;2.50;2.30;;;19.40;64.60;;;;;;4975146;28;20040;-44
2022/04/28 11:20:04;;;;;;;3.13;2.65;;;19.40;64.30;;;;;;4958927;28;20155;-48
2022/04/28 11:22:30;;;;;;;3.13;2.38;;;19.60;65.90;;;;;;4961284;28;20031;-46
2022/04/28 11:24:59;;;;;;;2.45;2.28;;;19.70;64.10;;;;;;4975944;28;20035;-45
2022/04/28 11:27:29;;;;;;;3.17;2.47;;;19.80;63.00;;;;;;4975627;28;20050;-45
2022/04/28 11:29:57;;;;;;;4.50;2.75;;;19.70;63.30;;;;;;4975508;28;20035;-48
2022/04/28 11:32:23;;;;;;;3.47;3.05;;;19.70;62.80;;;;;;4975301;28;20038;-44
2022/04/28 11:34:50;;;;;;;2.95;2.75;;;19.70;62.50;;;;;;4975145;28;20030;-45
2022/04/28 11:37:24;;;;;;;5.40;2.85;;;19.70;62.80;;;;;;4975058;28;20030;-46
2022/04/28 11:39:56;;;;;;;3.58;2.90;;;19.70;63.40;;;;;;4975275;28;20097;-46
2022/04/28 11:42:24;;;;;;;3.97;2.95;;;19.70;63.40;;;;;;4975592;28;20031;-49
2022/04/28 11:44:55;;;;;;;2.85;2.58;;;19.50;62.90;;;;;;4975520;28;20038;-47
2022/04/28 11:47:23;;;;;;;3.25;2.60;;;19.50;62.90;;;;;;4976698;28;20027;-49
2022/04/28 11:49:56;;;;;;;2.97;2.70;;;19.50;63.10;;;;;;4965223;28;20466;-45
2022/04/28 11:52:23;;;;;;;6.28;5.53;;;19.60;62.10;;;;;;4975650;28;20027;-46
2022/04/28 11:54:50;;;;;;;9.18;7.40;;;19.50;61.70;;;;;;4974937;28;20467;-46
2022/04/28 11:57:18;;;;;;;3.80;3.00;;;19.40;62.40;;;;;;4975401;28;20035;-48
2022/04/28 11:59:43;;;;;;;4.75;2.80;;;19.50;62.50;;;;;;4967385;28;20031;-47
2022/04/28 12:02:30;;;;;;;4.43;2.65;;;19.60;62.50;;;;;;4970848;28;20023;-48
2022/04/28 12:04:57;;;;;;;3.65;3.00;;;19.50;61.90;;;;;;4968008;28;20046;-49
2022/04/28 12:07:30;;;;;;;4.72;2.90;;;19.40;61.60;;;;;;4974604;28;20569;-47
2022/04/28 12:15:26;;;;;;;2.95;2.67;;;19.50;61.70;;;;;;4975566;28;20041;-47
2022/04/28 12:20:54;;;;;;;3.45;2.58;;;19.40;61.60;;;;;;4976110;28;20268;-47
2022/04/28 12:23:29;;;;;;;3.50;2.80;;;19.50;60.30;;;;;;4974544;28;20081;-47
2022/04/28 12:26:00;;;;;;;3.22;2.70;;;19.60;59.50;;;;;;4974299;28;20085;-54
2022/04/28 12:28:34;;;;;;;3.75;2.60;;;19.70;61.10;;;;;;4962479;28;20111;-48
2022/04/28 12:31:02;;;;;;;7.00;3.25;;;19.80;60.70;;;;;;4974834;28;20034;-48
2022/04/28 12:33:30;;;;;;;4.90;2.65;;;19.80;61.50;;;;;;4974499;28;20097;-44
2022/04/28 12:35:59;;;;;;;2.22;2.03;;;19.90;60.40;;;;;;4963797;28;20038;-46
2022/04/28 12:38:26;;;;;;;3.92;2.17;;;19.90;60.20;;;;;;4953792;29;20121;-45
2022/04/28 12:40:52;;;;;;;3.10;2.80;;;19.90;60.70;;;;;;4972079;28;20119;-48
2022/04/28 12:43:39;;;;;;;5.25;2.70;;;19.90;59.60;;;;;;4973855;28;20030;-48
2022/04/28 12:46:06;;;;;;;4.93;2.40;;;19.90;59.80;;;;;;4974190;28;20027;-41
2022/04/28 12:48:36;;;;;;;3.60;2.85;;;19.90;59.50;;;;;;4974357;28;20387;-48
2022/04/28 12:51:14;;;;;;;3.05;2.40;;;20.00;60.10;;;;;;4974498;28;20102;-47
2022/04/28 12:53:42;;;;;;;5.97;2.88;;;20.10;60.80;;;;;;4974446;28;20082;-50
2022/04/28 12:56:13;;;;;;;3.17;2.70;;;20.10;60.80;;;;;;4974431;28;20023;-47
2022/04/28 12:58:40;;;;;;;3.15;2.85;;;19.90;60.70;;;;;;4974004;28;20069;-48
2022/04/28 13:01:18;;;;;;;3.63;2.85;;;19.80;60.30;;;;;;4974259;28;20383;-49
2022/04/28 13:03:54;;;;;;;2.85;2.65;;;19.70;60.60;;;;;;4974172;28;20027;-45
2022/04/28 13:06:21;;;;;;;3.50;2.47;;;19.80;62.10;;;;;;4974338;28;20034;-49
2022/04/28 13:08:51;;;;;;;27.30;20.65;;;19.80;62.40;;;;;;4973761;28;20027;-48
2022/04/28 13:11:18;;;;;;;9.80;5.68;;;19.90;61.30;;;;;;4974371;28;20019;-45
2022/04/28 13:13:44;;;;;;;4.85;2.58;;;20.00;61.40;;;;;;4974024;28;20045;-50
2022/04/28 13:16:09;;;;;;;3.38;2.00;;;20.10;62.30;;;;;;4974089;28;20089;-46
2022/04/28 13:18:35;;;;;;;9.00;2.25;;;20.10;61.70;;;;;;4973531;28;20039;-46
2022/04/28 13:21:00;;;;;;;3.85;3.00;;;20.20;59.50;;;;;;4973878;28;20039;-46
2022/04/28 13:23:26;;;;;;;6.22;2.55;;;20.20;59.20;;;;;;4974177;28;20062;-46